Time;durP1;ratioP1;P1;durP2;ratioP2;P2;SDS_P1;SDS_P2;PMS_P1;PMS_P2;Temp;Humidity;BMP_temperature;BMP_pressure;BME280_temperature;BME280_humidity;BME280_pressure;Samples;Min_cycle;Max_cycle;Signal;HPM_P1;HPM_P2
2022/10/13 00:00:22;;;;;;;8.43;5.40;;;;;;;11.27;100.00;96373.44;6176686;23;20054;-54
2022/10/13 00:02:47;;;;;;;7.95;6.05;;;;;;;11.29;100.00;96376.78;6175047;23;20001;-51
2022/10/13 00:05:13;;;;;;;9.82;5.68;;;;;;;11.29;100.00;96368.88;6176503;23;20028;-58
2022/10/13 00:07:38;;;;;;;10.70;5.95;;;;;;;11.29;100.00;96366.25;6176393;23;20006;-65
2022/10/13 00:10:04;;;;;;;8.55;5.53;;;;;;;11.26;100.00;96362.06;6176388;23;20004;-61
2022/10/13 00:12:29;;;;;;;7.05;5.95;;;;;;;11.27;100.00;96362.91;6174890;23;20007;-61
2022/10/13 00:14:56;;;;;;;8.70;6.20;;;;;;;11.22;100.00;96365.09;6175509;23;20007;-60
2022/10/13 00:17:23;;;;;;;8.90;5.55;;;;;;;11.15;100.00;96365.59;6175727;22;20005;-62
2022/10/13 00:19:48;;;;;;;6.15;5.55;;;;;;;11.13;100.00;96364.06;6176415;23;20021;-61
2022/10/13 00:22:13;;;;;;;8.43;5.72;;;;;;;11.11;100.00;96373.91;6176591;23;20428;-63
2022/10/13 00:24:39;;;;;;;9.02;5.50;;;;;;;11.07;100.00;96370.69;6177760;23;20024;-60
2022/10/13 00:27:04;;;;;;;6.68;5.75;;;;;;;11.03;100.00;96369.28;6177291;23;20024;-69
2022/10/13 00:29:29;;;;;;;8.77;6.00;;;;;;;11.01;100.00;96371.19;6177042;23;20008;-70
2022/10/13 00:31:55;;;;;;;7.78;5.55;;;;;;;10.96;100.00;96368.94;6176269;23;20007;-70
2022/10/13 00:34:20;;;;;;;5.60;5.18;;;;;;;10.91;100.00;96370.28;6177667;23;20454;-71
2022/10/13 00:36:45;;;;;;;8.25;5.40;;;;;;;10.87;100.00;96365.28;6176942;23;20428;-69
2022/10/13 00:39:11;;;;;;;9.25;5.20;;;;;;;10.80;100.00;96373.81;6177538;23;20028;-71
2022/10/13 00:41:36;;;;;;;9.85;6.13;;;;;;;10.74;100.00;96370.72;6176103;23;20009;-71
2022/10/13 00:44:26;;;;;;;15.73;5.97;;;;;;;10.75;100.00;96371.56;6177578;23;20339;-62
2022/10/13 00:46:51;;;;;;;11.00;5.40;;;;;;;10.71;100.00;96370.13;6177674;23;20005;-70
2022/10/13 00:49:17;;;;;;;10.02;5.72;;;;;;;10.66;100.00;96377.56;6177632;23;20053;-70
2022/10/13 00:51:46;;;;;;;9.70;5.72;;;;;;;10.64;100.00;96390.03;6177660;23;20008;-70
2022/10/13 00:54:20;;;;;;;6.68;5.07;;;;;;;10.62;100.00;96379.66;6177281;23;20001;-70
2022/10/13 00:56:46;;;;;;;6.35;5.68;;;;;;;10.59;100.00;96388.63;6177812;23;20444;-70
2022/10/13 00:59:21;;;;;;;6.80;5.65;;;;;;;10.59;100.00;96387.75;6177402;23;20032;-69
2022/10/13 01:01:48;;;;;;;6.03;5.20;;;;;;;10.56;100.00;96385.38;6176788;22;20442;-69
2022/10/13 01:04:15;;;;;;;6.35;5.25;;;;;;;10.55;100.00;96376.66;6177618;23;20039;-66
2022/10/13 01:06:40;;;;;;;8.18;5.15;;;;;;;10.53;100.00;96378.59;6151018;23;20484;-64
2022/10/13 01:09:06;;;;;;;13.45;5.40;;;;;;;10.52;100.00;96382.19;6177682;23;20001;-64
2022/10/13 01:11:40;;;;;;;9.32;5.72;;;;;;;10.52;100.00;96384.81;6177451;23;20005;-64
2022/10/13 01:14:08;;;;;;;8.50;5.70;;;;;;;10.50;100.00;96373.59;6178108;23;20065;-64
2022/10/13 01:16:43;;;;;;;10.75;5.20;;;;;;;10.53;100.00;96369.84;6177895;23;20354;-64
2022/10/13 01:19:19;;;;;;;;;;;;;;;10.55;100.00;96370.56;6177423;23;20017;-64
2022/10/13 01:22:09;;;;;;;11.15;5.53;;;;;;;10.57;100.00;96374.75;6177616;22;19910;-53
2022/10/13 01:24:42;;;;;;;9.07;5.82;;;;;;;10.54;100.00;96371.50;6177512;23;19997;-69
2022/10/13 01:27:29;;;;;;;8.23;5.28;;;;;;;10.54;100.00;96368.88;6177690;23;20080;-57
2022/10/13 01:30:09;;;;;;;6.38;5.88;;;;;;;10.52;100.00;96371.66;6177212;23;20008;-55
2022/10/13 01:33:12;;;;;;;8.68;5.60;;;;;;;10.53;100.00;96360.16;6177698;23;20344;-55
2022/10/13 01:36:03;;;;;;;6.20;5.18;;;;;;;10.56;100.00;96364.31;6178232;23;20011;-55
2022/10/13 01:38:40;;;;;;;12.15;5.88;;;;;;;10.59;100.00;96359.66;6177866;23;20431;-54
2022/10/13 01:41:16;;;;;;;6.93;5.45;;;;;;;10.65;100.00;96354.84;6178199;23;20005;-61
2022/10/13 01:43:48;;;;;;;9.82;5.60;;;;;;;10.69;100.00;96356.25;6177708;23;20513;-63
2022/10/13 01:46:27;;;;;;;7.80;5.55;;;;;;;10.71;100.00;96344.63;6177671;23;20035;-59
2022/10/13 01:48:57;;;;;;;10.32;5.68;;;;;;;10.72;100.00;96356.84;6177514;23;20005;-59
2022/10/13 01:51:25;;;;;;;8.10;5.57;;;;;;;10.75;100.00;96351.31;6177828;23;20007;-59
2022/10/13 01:53:51;;;;;;;12.35;5.72;;;;;;;10.75;100.00;96339.97;6177690;23;20001;-59
2022/10/13 01:56:17;;;;;;;9.48;5.80;;;;;;;10.79;100.00;96344.00;6177794;23;20007;-59
2022/10/13 01:58:44;;;;;;;8.18;5.13;;;;;;;10.86;100.00;96336.44;6177284;23;20001;-59
2022/10/13 02:01:31;;;;;;;9.10;5.57;;;;;;;10.92;100.00;96341.19;6177936;23;20092;-59
2022/10/13 02:04:25;;;;;;;10.43;5.22;;;;;;;10.93;100.00;96342.00;6177827;23;20438;-62
2022/10/13 02:07:03;;;;;;;9.95;5.28;;;;;;;10.97;100.00;96332.91;6177552;23;20484;-62
2022/10/13 02:09:28;;;;;;;11.70;5.47;;;;;;;10.97;100.00;96339.00;6177738;23;20101;-63
2022/10/13 02:12:01;;;;;;;8.23;5.10;;;;;;;10.96;100.00;96345.22;6177433;23;20011;-62
2022/10/13 02:14:29;;;;;;;6.18;4.85;;;;;;;10.95;100.00;96346.19;6177874;23;20343;-63
2022/10/13 02:16:58;;;;;;;6.50;4.50;;;;;;;11.01;100.00;96340.41;6150958;22;20013;-63
2022/10/13 02:19:26;;;;;;;7.20;4.80;;;;;;;11.06;100.00;96337.41;6177441;23;20024;-61
2022/10/13 02:21:52;;;;;;;8.15;4.85;;;;;;;11.10;100.00;96341.44;6177166;23;20001;-62
2022/10/13 02:24:18;;;;;;;10.27;5.07;;;;;;;11.13;100.00;96343.00;6177464;23;20008;-64
2022/10/13 02:26:44;;;;;;;6.63;5.05;;;;;;;11.13;100.00;96343.81;6177694;23;20001;-64
2022/10/13 02:29:13;;;;;;;5.35;4.70;;;;;;;11.15;100.00;96341.88;6177823;23;19997;-64
2022/10/13 02:31:39;;;;;;;5.38;4.85;;;;;;;11.17;100.00;96345.25;6177526;23;20001;-64
2022/10/13 02:34:05;;;;;;;6.80;4.78;;;;;;;11.17;100.00;96339.97;6177731;22;20347;-64
2022/10/13 02:36:31;;;;;;;6.20;4.80;;;;;;;11.19;100.00;96345.09;6177250;23;20457;-64
2022/10/13 02:38:57;;;;;;;8.23;4.80;;;;;;;11.20;100.00;96330.94;6177074;23;20005;-63
2022/10/13 02:41:22;;;;;;;8.98;4.70;;;;;;;11.20;100.00;96338.03;6177581;23;20338;-63
2022/10/13 02:43:47;;;;;;;6.55;5.78;;;;;;;11.19;100.00;96326.66;6176761;23;19997;-63
2022/10/13 02:46:13;;;;;;;7.40;4.80;;;;;;;11.18;100.00;96320.56;6177945;22;20008;-63
2022/10/13 02:48:39;;;;;;;6.13;4.20;;;;;;;11.17;100.00;96318.88;6177282;23;20029;-62
2022/10/13 02:51:05;;;;;;;7.65;4.82;;;;;;;11.14;100.00;96319.13;6177290;23;20032;-63
2022/10/13 02:53:30;;;;;;;5.60;4.28;;;;;;;11.12;100.00;96320.25;6177372;23;19997;-63
2022/10/13 02:55:56;;;;;;;7.20;5.05;;;;;;;11.09;100.00;96316.06;6177374;23;20005;-63
2022/10/13 02:58:21;;;;;;;7.55;4.38;;;;;;;11.06;100.00;96318.13;6177567;22;20016;-70
2022/10/13 03:00:46;;;;;;;8.15;4.22;;;;;;;11.03;100.00;96327.94;6177349;23;20291;-59
2022/10/13 03:03:12;;;;;;;5.25;4.50;;;;;;;11.03;100.00;96327.13;6177401;23;20102;-64
2022/10/13 03:05:37;;;;;;;5.22;4.55;;;;;;;11.01;100.00;96321.13;6177210;23;20001;-64
2022/10/13 03:08:03;;;;;;;7.15;5.70;;;;;;;11.00;100.00;96332.66;6177065;23;20016;-64
2022/10/13 03:10:30;;;;;;;13.32;7.75;;;;;;;10.97;100.00;96325.00;6177251;23;20001;-64
2022/10/13 03:12:56;;;;;;;5.05;4.60;;;;;;;10.95;100.00;96326.94;6177049;23;19997;-64
2022/10/13 03:15:22;;;;;;;8.20;4.63;;;;;;;10.92;100.00;96325.38;6177128;23;20443;-64
2022/10/13 03:17:48;;;;;;;12.23;4.93;;;;;;;10.89;100.00;96323.81;6177372;23;19997;-70
2022/10/13 03:20:13;;;;;;;10.13;4.40;;;;;;;10.87;100.00;96328.38;6176978;23;20032;-54
2022/10/13 03:22:38;;;;;;;8.50;4.55;;;;;;;10.87;100.00;96323.13;6177386;23;20001;-54
2022/10/13 03:25:04;;;;;;;6.95;4.75;;;;;;;10.83;100.00;96328.75;6177160;23;20563;-54
2022/10/13 03:27:30;;;;;;;5.13;4.63;;;;;;;10.79;100.00;96322.94;6177148;23;20100;-55
2022/10/13 03:29:55;;;;;;;5.25;4.28;;;;;;;10.78;100.00;96316.00;6177069;23;19993;-55
2022/10/13 03:32:21;;;;;;;7.43;4.60;;;;;;;10.75;100.00;96319.72;6176997;23;20005;-54
2022/10/13 03:34:46;;;;;;;9.43;5.05;;;;;;;10.72;100.00;96321.75;6177296;23;20005;-56
2022/10/13 03:37:12;;;;;;;6.22;4.65;;;;;;;10.68;100.00;96322.97;6177239;23;20005;-70
2022/10/13 03:39:37;;;;;;;5.90;4.07;;;;;;;10.69;100.00;96314.13;6177076;23;20008;-61
2022/10/13 03:42:02;;;;;;;9.93;8.73;;;;;;;10.73;100.00;96320.81;6176883;23;20005;-61
2022/10/13 03:44:28;;;;;;;8.48;6.80;;;;;;;10.73;100.00;96323.47;6177249;23;20004;-61
2022/10/13 03:46:53;;;;;;;6.35;4.82;;;;;;;10.72;100.00;96319.97;6176665;22;20005;-62
2022/10/13 03:49:18;;;;;;;4.35;3.95;;;;;;;10.72;100.00;96316.50;6176732;23;20068;-61
2022/10/13 03:51:44;;;;;;;8.27;4.30;;;;;;;10.69;100.00;96322.88;6176936;23;20431;-61
2022/10/13 03:54:11;;;;;;;5.55;4.22;;;;;;;10.65;100.00;96317.97;6177303;23;20005;-61
2022/10/13 03:56:37;;;;;;;6.00;4.03;;;;;;;10.58;100.00;96318.50;6178142;23;20068;-58
2022/10/13 03:59:03;;;;;;;8.45;4.50;;;;;;;10.56;100.00;96322.19;6178174;23;20036;-69
2022/10/13 04:01:30;;;;;;;6.60;3.95;;;;;;;10.50;100.00;96326.19;6178138;23;20489;-69
2022/10/13 04:03:57;;;;;;;6.05;4.38;;;;;;;10.48;100.00;96314.94;6177734;23;20021;-69
2022/10/13 04:06:24;;;;;;;7.13;3.85;;;;;;;10.45;100.00;96328.34;6178536;22;20064;-69
2022/10/13 04:08:50;;;;;;;6.13;4.13;;;;;;;10.43;100.00;96323.22;6178423;23;20043;-69
2022/10/13 04:11:16;;;;;;;5.18;4.15;;;;;;;10.40;100.00;96327.84;6177866;23;19997;-69
2022/10/13 04:13:42;;;;;;;11.75;9.73;;;;;;;10.37;100.00;96328.13;6177928;23;20005;-69
2022/10/13 04:16:13;;;;;;;13.85;9.13;;;;;;;10.33;100.00;96330.16;6177880;23;20005;-61
2022/10/13 04:18:38;;;;;;;5.68;4.78;;;;;;;10.29;100.00;96334.84;6177960;23;20013;-63
2022/10/13 04:21:09;;;;;;;4.72;4.28;;;;;;;10.24;100.00;96331.72;6178132;23;20028;-64
2022/10/13 04:23:35;;;;;;;9.05;4.68;;;;;;;10.20;100.00;96332.13;6178057;22;20005;-63
2022/10/13 04:26:00;;;;;;;7.13;4.00;;;;;;;10.19;100.00;96328.63;6177940;22;20449;-63
2022/10/13 04:28:26;;;;;;;7.68;4.38;;;;;;;10.21;100.00;96326.72;6178298;23;19997;-64
2022/10/13 04:30:51;;;;;;;7.55;4.30;;;;;;;10.23;100.00;96324.78;6178161;23;20050;-63
2022/10/13 04:33:16;;;;;;;8.40;4.05;;;;;;;10.24;100.00;96321.19;6177849;23;20008;-63
2022/10/13 04:35:42;;;;;;;18.92;4.68;;;;;;;10.22;100.00;96319.69;6178062;23;20339;-61
2022/10/13 04:38:07;;;;;;;5.13;3.67;;;;;;;10.20;100.00;96317.16;6177986;23;20068;-70
2022/10/13 04:40:33;;;;;;;4.82;3.78;;;;;;;10.17;100.00;96320.03;6177831;23;20007;-70
2022/10/13 04:42:59;;;;;;;6.60;4.32;;;;;;;10.13;100.00;96326.50;6178028;23;20072;-69
2022/10/13 04:45:25;;;;;;;9.32;4.15;;;;;;;10.07;100.00;96319.13;6177874;23;20461;-69
2022/10/13 04:47:51;;;;;;;8.15;4.10;;;;;;;10.00;100.00;96324.84;6178604;22;20024;-70
2022/10/13 04:50:17;;;;;;;4.30;4.00;;;;;;;9.97;100.00;96330.38;6177678;22;20446;-69
2022/10/13 04:52:42;;;;;;;5.93;4.05;;;;;;;9.96;100.00;96323.44;6178056;23;20047;-65
2022/10/13 04:55:09;;;;;;;9.45;4.35;;;;;;;9.93;100.00;96323.69;6177804;23;20024;-62
2022/10/13 04:57:34;;;;;;;6.53;3.97;;;;;;;9.92;100.00;96324.63;6178254;22;20070;-61
2022/10/13 05:00:00;;;;;;;6.47;4.18;;;;;;;9.90;100.00;96326.56;6177387;23;20087;-61
2022/10/13 05:02:26;;;;;;;4.57;4.22;;;;;;;9.87;100.00;96324.19;6178347;23;20369;-61
2022/10/13 05:04:51;;;;;;;7.78;4.55;;;;;;;9.83;100.00;96327.97;6178110;23;20004;-61
2022/10/13 05:07:17;;;;;;;4.82;4.35;;;;;;;9.81;100.00;96329.91;6177553;23;20058;-61
2022/10/13 05:09:42;;;;;;;8.95;4.25;;;;;;;9.77;100.00;96323.22;6177679;23;19997;-61
2022/10/13 05:12:08;;;;;;;8.57;4.30;;;;;;;9.74;100.00;96314.63;6177286;23;19997;-68
2022/10/13 05:14:33;;;;;;;5.80;4.40;;;;;;;9.71;100.00;96312.22;6177802;23;20075;-64
2022/10/13 05:17:00;;;;;;;5.75;3.92;;;;;;;9.71;100.00;96316.63;6177627;23;20004;-55
2022/10/13 05:19:26;;;;;;;4.20;3.90;;;;;;;9.73;100.00;96315.56;6177929;23;20020;-55
2022/10/13 05:21:51;;;;;;;7.70;4.00;;;;;;;9.73;100.00;96323.47;6177103;23;19997;-55
2022/10/13 05:24:19;;;;;;;7.00;4.65;;;;;;;9.70;100.00;96325.50;6177811;23;20016;-54
2022/10/13 05:26:45;;;;;;;7.35;4.10;;;;;;;9.67;100.00;96328.38;6177560;22;20039;-53
2022/10/13 05:29:10;;;;;;;5.65;4.28;;;;;;;9.63;100.00;96333.03;6177318;23;19993;-54
2022/10/13 05:31:35;;;;;;;6.53;4.00;;;;;;;9.63;100.00;96325.16;6177069;23;20025;-62
2022/10/13 05:34:01;;;;;;;6.82;4.32;;;;;;;9.64;100.00;96329.47;6176400;23;20001;-68
2022/10/13 05:36:29;;;;;;;4.18;3.78;;;;;;;9.62;100.00;96331.38;6177942;23;20005;-54
2022/10/13 05:38:57;;;;;;;5.57;3.72;;;;;;;9.62;100.00;96334.00;6176957;23;20009;-56
2022/10/13 05:41:24;;;;;;;6.55;4.50;;;;;;;9.61;100.00;96329.69;6175831;23;20019;-53
2022/10/13 05:43:52;;;;;;;10.27;4.88;;;;;;;9.60;100.00;96333.25;6176158;23;20801;-54
2022/10/13 05:46:17;;;;;;;6.15;4.78;;;;;;;9.59;100.00;96337.69;6177279;23;20427;-54
2022/10/13 05:48:43;;;;;;;6.38;3.85;;;;;;;9.55;100.00;96338.91;6176143;23;20044;-56
2022/10/13 05:51:29;;;;;;;6.05;4.25;;;;;;;9.56;100.00;96344.97;6177351;23;20433;-66
2022/10/13 05:54:20;;;;;;;10.02;5.18;;;;;;;9.53;100.00;96368.88;6177714;23;19993;-64
2022/10/13 05:57:26;;;;;;;4.70;4.25;;;;;;;9.56;100.00;96360.75;6177599;23;20009;-63
2022/10/13 05:59:57;;;;;;;10.27;4.70;;;;;;;9.55;100.00;96366.97;6176872;23;20001;-64
2022/10/13 06:02:27;;;;;;;5.65;4.57;;;;;;;9.56;100.00;96368.63;6177801;23;20005;-61
2022/10/13 06:04:56;;;;;;;6.78;4.47;;;;;;;9.51;100.00;96370.78;6177591;23;20004;-63
2022/10/13 06:07:22;;;;;;;10.48;5.35;;;;;;;9.53;100.00;96371.50;6176793;23;20225;-63
2022/10/13 06:09:48;;;;;;;7.75;5.03;;;;;;;9.55;100.00;96366.97;6175525;22;20000;-64
2022/10/13 06:12:14;;;;;;;6.97;4.72;;;;;;;9.56;100.00;96364.22;6176321;23;20009;-54
2022/10/13 06:14:39;;;;;;;10.10;4.80;;;;;;;9.58;100.00;96361.47;6177385;23;20551;-55
2022/10/13 06:17:05;;;;;;;8.30;4.40;;;;;;;9.62;100.00;96368.19;6177146;23;20001;-54
2022/10/13 06:19:30;;;;;;;7.63;4.35;;;;;;;9.64;100.00;96365.41;6176970;23;20439;-53
2022/10/13 06:21:55;;;;;;;6.20;4.60;;;;;;;9.64;100.00;96350.50;6177412;23;20062;-54
2022/10/13 06:24:21;;;;;;;5.50;4.47;;;;;;;9.67;100.00;96342.34;6176225;23;20400;-56
2022/10/13 06:26:46;;;;;;;9.30;4.90;;;;;;;9.70;100.00;96331.59;6176962;23;20009;-55
2022/10/13 06:29:11;;;;;;;9.57;4.60;;;;;;;9.73;100.00;96331.34;6177560;23;20012;-54
2022/10/13 06:31:37;;;;;;;7.13;4.53;;;;;;;9.79;100.00;96327.41;6177469;23;20005;-63
2022/10/13 06:34:02;;;;;;;10.02;4.38;;;;;;;9.86;100.00;96322.50;6151618;22;20005;-60
2022/10/13 06:36:27;;;;;;;6.15;4.97;;;;;;;9.91;100.00;96330.00;6177479;23;20381;-60
2022/10/13 06:38:53;;;;;;;6.15;4.25;;;;;;;9.96;100.00;96326.06;6177504;23;20362;-60
2022/10/13 06:41:19;;;;;;;4.80;4.38;;;;;;;10.03;100.00;96332.50;6177398;23;20001;-61
2022/10/13 06:43:44;;;;;;;8.43;4.38;;;;;;;10.06;100.00;96325.31;6177437;22;20134;-61
2022/10/13 06:46:10;;;;;;;7.28;4.82;;;;;;;10.08;100.00;96316.34;6177253;23;20013;-61
2022/10/13 06:48:36;;;;;;;7.88;6.32;;;;;;;10.12;100.00;96309.88;6151136;23;19997;-61
2022/10/13 06:51:03;;;;;;;7.82;5.47;;;;;;;10.19;100.00;96304.97;6177476;23;20008;-61
2022/10/13 06:53:29;;;;;;;20.10;7.78;;;;;;;10.27;100.00;96306.97;6150738;22;20381;-64
2022/10/13 06:55:59;;;;;;;10.13;7.15;;;;;;;10.34;100.00;96312.56;6177582;23;20004;-65
2022/10/13 06:58:24;;;;;;;7.80;5.30;;;;;;;10.37;100.00;96320.22;6150871;23;20355;-66
2022/10/13 07:00:50;;;;;;;5.10;4.65;;;;;;;10.42;100.00;96323.34;6177297;22;20008;-69
2022/10/13 07:03:16;;;;;;;10.50;4.50;;;;;;;10.51;100.00;96324.38;6177218;23;20008;-66
2022/10/13 07:05:41;;;;;;;8.00;5.10;;;;;;;10.65;100.00;96326.72;6177116;23;20005;-67
2022/10/13 07:08:06;;;;;;;7.97;5.32;;;;;;;10.71;100.00;96335.88;6150837;23;20005;-67
2022/10/13 07:10:32;;;;;;;10.25;5.05;;;;;;;10.72;100.00;96340.19;6177446;23;20014;-59
2022/10/13 07:12:57;;;;;;;8.90;5.75;;;;;;;10.71;100.00;96339.38;6177533;23;19997;-65
2022/10/13 07:15:23;;;;;;;11.93;6.07;;;;;;;10.79;100.00;96338.75;6177072;23;20001;-66
2022/10/13 07:17:52;;;;;;;8.68;5.85;;;;;;;10.82;100.00;96338.47;6177170;23;20069;-65
2022/10/13 07:20:18;;;;;;;10.35;6.88;;;;;;;10.89;100.00;96326.47;6176217;23;20107;-65
2022/10/13 07:22:44;;;;;;;12.60;7.80;;;;;;;11.04;100.00;96326.16;6177326;23;20004;-65
2022/10/13 07:25:09;;;;;;;21.70;7.10;;;;;;;11.17;100.00;96324.16;6176914;23;20001;-65
2022/10/13 07:27:37;;;;;;;16.25;7.07;;;;;;;11.25;100.00;96328.75;6177572;23;20008;-58
2022/10/13 07:30:03;;;;;;;11.35;6.03;;;;;;;11.32;100.00;96323.81;6176711;23;20335;-57
2022/10/13 07:32:30;;;;;;;13.55;5.60;;;;;;;11.41;100.00;96332.72;6151000;23;20004;-62
2022/10/13 07:34:55;;;;;;;7.43;5.63;;;;;;;11.49;100.00;96339.97;6177010;23;20435;-62
2022/10/13 07:37:21;;;;;;;11.23;4.72;;;;;;;11.60;100.00;96342.50;6177076;23;20015;-62
2022/10/13 07:39:46;;;;;;;8.98;4.32;;;;;;;11.69;100.00;96338.25;6177210;23;20070;-61
2022/10/13 07:42:11;;;;;;;10.07;4.35;;;;;;;11.67;100.00;96340.19;6177047;23;20012;-62
2022/10/13 07:44:37;;;;;;;5.40;4.30;;;;;;;11.69;100.00;96344.38;6177187;23;20350;-61
2022/10/13 07:47:02;;;;;;;6.00;4.07;;;;;;;11.74;100.00;96341.34;6177035;23;20007;-72
2022/10/13 07:49:28;;;;;;;9.27;3.80;;;;;;;11.82;100.00;96344.13;6176950;23;20423;-66
2022/10/13 07:51:53;;;;;;;4.60;3.70;;;;;;;11.85;100.00;96349.16;6176881;23;20028;-67
2022/10/13 07:54:18;;;;;;;5.32;3.97;;;;;;;11.92;100.00;96346.81;6177023;23;20012;-67
2022/10/13 07:56:44;;;;;;;8.27;3.90;;;;;;;12.00;100.00;96348.78;6177013;23;20000;-67
2022/10/13 07:59:09;;;;;;;11.82;4.07;;;;;;;11.98;100.00;96343.63;6176993;23;20005;-67
2022/10/13 08:01:35;;;;;;;9.02;4.63;;;;;;;12.03;100.00;96351.19;6176856;23;20347;-67
2022/10/13 08:04:01;;;;;;;14.90;6.75;;;;;;;12.02;100.00;96345.06;6176936;23;20505;-68
2022/10/13 08:06:26;;;;;;;24.95;7.20;;;;;;;12.01;100.00;96338.09;6176895;23;20343;-62
2022/10/13 08:08:51;;;;;;;9.43;5.40;;;;;;;12.06;100.00;96343.00;6176829;23;20072;-65
2022/10/13 08:11:17;;;;;;;9.27;4.57;;;;;;;12.21;100.00;96343.44;6176641;23;20396;-55
2022/10/13 08:13:47;;;;;;;10.48;4.20;;;;;;;12.25;100.00;96328.16;6176895;23;20005;-57
2022/10/13 08:16:13;;;;;;;5.60;3.72;;;;;;;12.31;100.00;96331.09;6176666;23;19997;-57
2022/10/13 08:18:38;;;;;;;9.38;4.13;;;;;;;12.37;100.00;96327.06;6176881;23;20032;-54
2022/10/13 08:21:03;;;;;;;10.45;4.47;;;;;;;12.41;100.00;96320.56;6176628;23;20032;-55
2022/10/13 08:23:29;;;;;;;10.57;4.50;;;;;;;12.45;100.00;96329.84;6177188;23;20001;-55
2022/10/13 08:25:55;;;;;;;4.60;3.97;;;;;;;12.50;100.00;96316.25;6176700;23;20431;-67
2022/10/13 08:28:25;;;;;;;6.07;3.65;;;;;;;12.54;100.00;96324.72;6150441;22;20112;-68
2022/10/13 08:30:52;;;;;;;9.70;4.03;;;;;;;12.56;100.00;96323.59;6176605;23;20058;-62
2022/10/13 08:33:18;;;;;;;6.53;4.47;;;;;;;12.54;100.00;96317.63;6176695;22;20324;-62
2022/10/13 08:35:44;;;;;;;8.23;4.47;;;;;;;12.60;100.00;96319.72;6176854;23;19997;-62
2022/10/13 08:38:09;;;;;;;6.10;4.28;;;;;;;12.80;100.00;96322.34;6176532;23;20024;-62
2022/10/13 08:40:36;;;;;;;9.35;4.32;;;;;;;12.92;100.00;96315.09;6176677;22;20005;-61
2022/10/13 08:43:05;;;;;;;6.75;4.68;;;;;;;13.04;100.00;96323.72;6177852;23;20004;-61
2022/10/13 08:45:31;;;;;;;10.38;3.70;;;;;;;13.14;100.00;96321.88;6178110;22;20024;-62
2022/10/13 08:48:35;;;;;;;7.95;4.72;;;;;;;13.17;100.00;96313.69;6178249;23;20023;-61
2022/10/13 08:51:04;;;;;;;8.10;4.20;;;;;;;13.22;100.00;96315.88;6162833;23;20005;-62
2022/10/13 08:53:41;;;;;;;7.20;4.65;;;;;;;13.31;100.00;96314.19;6177565;23;20015;-62
2022/10/13 08:56:13;;;;;;;5.97;4.45;;;;;;;13.36;100.00;96306.63;6177966;23;20025;-62
2022/10/13 08:58:41;;;;;;;4.97;4.55;;;;;;;13.39;100.00;96295.78;6177751;23;20015;-63
2022/10/13 09:01:09;;;;;;;5.60;4.50;;;;;;;13.49;100.00;96294.94;6177920;23;20050;-63
2022/10/13 09:03:54;;;;;;;5.50;4.20;;;;;;;13.56;98.20;96291.56;6177913;23;20008;-65
2022/10/13 09:06:30;;;;;;;6.45;4.32;;;;;;;13.71;99.90;96289.28;6151300;22;20005;-66
2022/10/13 09:09:00;;;;;;;11.63;4.93;;;;;;;13.87;99.34;96291.28;6177876;23;20001;-63
2022/10/13 09:11:28;;;;;;;9.15;5.57;;;;;;;13.95;97.81;96295.84;6177787;23;20454;-63
2022/10/13 09:13:56;;;;;;;8.48;5.82;;;;;;;14.03;97.12;96298.56;6177859;23;20008;-63
2022/10/13 09:16:32;;;;;;;9.30;5.85;;;;;;;14.07;95.37;96298.28;6176364;23;20005;-63
2022/10/13 09:19:10;;;;;;;9.90;4.85;;;;;;;14.16;94.97;96307.97;6177351;23;20455;-63
2022/10/13 09:21:35;;;;;;;10.52;4.68;;;;;;;14.17;94.13;96310.47;6177631;23;19997;-63
2022/10/13 09:24:06;;;;;;;7.18;4.32;;;;;;;14.13;94.57;96303.78;6177235;23;20004;-59
2022/10/13 09:26:36;;;;;;;7.35;4.38;;;;;;;14.21;95.02;96307.53;6177849;23;20001;-66
2022/10/13 09:29:08;;;;;;;5.43;4.05;;;;;;;14.31;95.15;96303.00;6177817;23;20014;-66
2022/10/13 09:31:36;;;;;;;9.05;4.75;;;;;;;14.42;94.02;96294.00;6178044;23;20015;-67
2022/10/13 09:34:13;;;;;;;14.75;4.65;;;;;;;14.43;93.57;96295.66;6177317;23;20001;-66
2022/10/13 09:36:53;;;;;;;5.63;4.20;;;;;;;14.61;94.83;96296.47;6176911;23;20019;-66
2022/10/13 09:39:18;;;;;;;5.05;4.55;;;;;;;14.80;92.76;96293.84;6177584;23;20002;-66
2022/10/13 09:41:44;;;;;;;8.50;5.22;;;;;;;14.90;91.23;96284.81;6177104;22;20015;-65
2022/10/13 09:44:29;;;;;;;7.47;5.05;;;;;;;15.03;91.30;96286.22;6177041;23;20001;-68
2022/10/13 09:46:56;;;;;;;8.57;4.97;;;;;;;15.17;91.14;96290.13;6176360;23;20028;-69
2022/10/13 09:49:22;;;;;;;5.53;4.13;;;;;;;15.28;89.96;96291.69;6176274;23;19993;-69
2022/10/13 09:51:47;;;;;;;7.50;4.20;;;;;;;15.38;90.71;96287.13;6177327;23;20050;-67
2022/10/13 09:54:49;;;;;;;6.45;4.32;;;;;;;15.45;88.61;96282.84;6177631;23;20054;-70
2022/10/13 09:57:45;;;;;;;5.55;4.07;;;;;;;15.46;84.68;96284.50;6177406;23;19997;-67
2022/10/13 10:00:18;;;;;;;8.40;3.50;;;;;;;15.47;83.81;96280.84;6177253;23;20016;-68
2022/10/13 10:02:52;;;;;;;7.97;3.70;;;;;;;15.43;84.73;96270.72;6177496;23;20040;-56
2022/10/13 10:05:23;;;;;;;9.95;3.97;;;;;;;15.52;87.67;96275.09;6178075;23;19999;-70
2022/10/13 10:07:49;;;;;;;11.18;5.18;;;;;;;15.56;89.51;96267.63;6178097;23;19997;-70
2022/10/13 10:10:30;;;;;;;13.88;6.22;;;;;;;15.65;88.43;96258.72;6177345;23;20062;-71
2022/10/13 10:12:56;;;;;;;15.02;6.60;;;;;;;15.57;90.12;96254.19;6177383;23;20005;-72
2022/10/13 10:15:48;;;;;;;8.38;5.82;;;;;;;15.62;91.10;96256.38;6177796;23;20117;-71
2022/10/13 10:18:20;;;;;;;8.77;5.68;;;;;;;15.53;89.47;96257.31;6117444;23;20165;-71
2022/10/13 10:20:57;;;;;;;6.28;5.68;;;;;;;15.52;91.68;96261.81;6177742;23;20001;-57
2022/10/13 10:23:42;;;;;;;17.40;5.55;;;;;;;15.75;90.61;96254.09;6177700;23;20054;-68
2022/10/13 10:26:15;;;;;;;8.48;6.55;;;;;;;15.66;90.22;96254.22;6177382;23;20001;-72
2022/10/13 10:28:56;;;;;;;11.20;5.78;;;;;;;15.54;88.84;96248.38;6177841;22;19997;-72
2022/10/13 10:31:41;;;;;;;9.25;6.15;;;;;;;15.31;90.73;96247.13;6177566;22;20008;-71
2022/10/13 10:34:33;;;;;;;11.88;5.63;;;;;;;15.31;91.29;96238.31;6177529;23;20328;-71
2022/10/13 10:37:11;;;;;;;8.50;5.75;;;;;;;15.32;91.84;96239.97;6177446;23;20008;-71
2022/10/13 10:40:05;;;;;;;9.85;5.75;;;;;;;15.31;91.10;96239.16;6177249;23;20001;-63
2022/10/13 10:42:43;;;;;;;9.75;5.90;;;;;;;15.41;90.54;96238.19;6150990;22;20092;-67
2022/10/13 10:45:28;;;;;;;8.88;5.80;;;;;;;15.63;90.01;96247.44;6177381;23;20447;-66
2022/10/13 10:48:00;;;;;;;8.63;5.07;;;;;;;15.67;88.24;96238.16;6177528;23;20050;-67
2022/10/13 10:50:28;;;;;;;10.85;5.22;;;;;;;15.70;88.92;96227.22;6177579;23;20072;-66
2022/10/13 10:53:20;;;;;;;8.05;5.70;;;;;;;15.94;88.21;96227.47;6177913;23;20008;-66
2022/10/13 10:55:48;;;;;;;11.63;5.82;;;;;;;15.93;87.78;96226.63;6177362;23;20028;-66
2022/10/13 10:58:22;;;;;;;10.13;5.38;;;;;;;15.93;86.80;96221.31;6177012;23;20501;-67
2022/10/13 11:01:05;;;;;;;8.13;5.23;;;;;;;16.04;87.75;96218.38;6176146;23;20022;-66
2022/10/13 11:03:48;;;;;;;7.18;6.35;;;;;;;16.22;86.71;96212.06;6176333;22;20600;-62
2022/10/13 11:06:16;;;;;;;7.65;5.85;;;;;;;16.28;84.58;96200.81;6176685;23;20009;-61
2022/10/13 11:08:45;;;;;;;8.35;5.38;;;;;;;16.48;85.25;96203.13;6176871;23;19993;-61
2022/10/13 11:11:24;;;;;;;10.02;5.43;;;;;;;16.63;83.83;96203.28;6176672;23;20004;-62
2022/10/13 11:13:52;;;;;;;5.45;4.60;;;;;;;16.78;83.93;96203.44;6177194;23;20009;-62
2022/10/13 11:16:34;;;;;;;7.03;4.95;;;;;;;16.93;81.54;96214.22;6177159;23;19997;-62
2022/10/13 11:19:28;;;;;;;7.43;4.70;;;;;;;16.79;81.56;96205.09;6176708;23;20009;-64
2022/10/13 11:21:54;;;;;;;7.78;5.03;;;;;;;16.90;82.98;96210.03;6176467;23;20265;-71
2022/10/13 11:24:41;;;;;;;7.78;4.78;;;;;;;17.12;81.06;96210.38;6176767;23;20005;-70
2022/10/13 11:27:15;;;;;;;5.78;4.70;;;;;;;17.08;80.93;96190.44;6176857;23;20001;-72
2022/10/13 11:29:47;;;;;;;8.82;4.88;;;;;;;17.03;82.21;96174.16;6176435;23;20435;-71
2022/10/13 11:32:54;;;;;;;7.65;5.22;;;;;;;17.15;80.15;96164.81;6177208;23;20491;-71
2022/10/13 11:35:10;;;;;;;5.95;5.10;;;;;;;17.43;79.44;96166.19;6176260;23;20458;-72
2022/10/13 11:37:42;;;;;;;6.60;5.00;;;;;;;17.41;78.78;96160.22;6176690;23;20012;-59